createdAt,value
2018-07-08T00:01:22.909Z,100829.41
2018-07-08T00:03:51.452Z,100833.80
2018-07-08T00:06:20.501Z,100830.80
2018-07-08T00:08:48.957Z,100836.25
2018-07-08T00:11:17.401Z,100835.69
2018-07-08T00:13:45.832Z,100834.88
2018-07-08T00:16:14.332Z,100830.24
2018-07-08T00:18:42.774Z,100838.43
2018-07-08T00:21:11.283Z,100838.17
2018-07-08T00:23:39.757Z,100835.12
2018-07-08T00:26:08.222Z,100840.59
2018-07-08T00:28:36.701Z,100836.47
2018-07-08T00:31:05.161Z,100839.77
2018-07-08T00:33:33.597Z,100837.57
2018-07-08T00:36:02.046Z,100835.62
2018-07-08T00:38:30.480Z,100836.45
2018-07-08T00:40:58.861Z,100841.64
2018-07-08T00:43:27.340Z,100839.45
2018-07-08T00:45:56.077Z,100839.41
2018-07-08T00:48:24.531Z,100838.62
2018-07-08T00:50:53.001Z,100838.30
2018-07-08T00:53:21.550Z,100835.78
2018-07-08T00:55:49.989Z,100840.11
2018-07-08T00:58:18.446Z,100849.97
2018-07-08T01:00:46.838Z,100842.00
2018-07-08T01:03:15.280Z,100847.17
2018-07-08T01:05:43.741Z,100845.52
2018-07-08T01:08:12.805Z,100846.07
2018-07-08T01:10:41.283Z,100854.23
2018-07-08T01:13:09.735Z,100856.19
2018-07-08T01:15:38.246Z,100856.72
2018-07-08T01:18:06.806Z,100855.05
2018-07-08T01:20:35.285Z,100858.26
2018-07-08T01:23:03.773Z,100852.76
2018-07-08T01:25:43.561Z,100856.88
2018-07-08T01:28:12.084Z,100862.31
2018-07-08T01:30:40.543Z,100866.65
2018-07-08T01:33:09.017Z,100870.95
2018-07-08T01:35:37.474Z,100872.54
2018-07-08T01:38:06.675Z,100873.91
2018-07-08T01:40:41.712Z,100876.05
2018-07-08T01:43:11.017Z,100880.13
2018-07-08T01:45:39.458Z,100880.19
2018-07-08T01:48:08.005Z,100882.61
2018-07-08T01:50:36.446Z,100876.30
2018-07-08T01:53:05.233Z,100875.45
2018-07-08T01:55:33.689Z,100880.81
2018-07-08T01:58:02.270Z,100880.05
2018-07-08T02:00:30.882Z,100881.66
2018-07-08T02:02:59.384Z,100882.13
2018-07-08T02:05:27.842Z,100885.98
2018-07-08T02:07:56.744Z,100885.75
2018-07-08T02:10:25.186Z,100887.55
2018-07-08T02:12:53.613Z,100884.19
2018-07-08T02:15:22.276Z,100877.37
2018-07-08T02:17:51.694Z,100881.07
2018-07-08T02:20:20.185Z,100884.33
2018-07-08T02:22:48.701Z,100884.03
2018-07-08T02:25:17.185Z,100886.22
2018-07-08T02:27:45.621Z,100887.92
2018-07-08T02:30:14.022Z,100880.97
2018-07-08T02:32:42.486Z,100884.13
2018-07-08T02:35:10.913Z,100877.91
2018-07-08T02:37:39.445Z,100875.75
2018-07-08T02:40:07.918Z,100872.61
2018-07-08T02:42:36.517Z,100875.64
2018-07-08T02:45:05.185Z,100874.19
2018-07-08T02:47:33.740Z,100878.27
2018-07-08T02:50:02.206Z,100884.22
2018-07-08T02:52:30.680Z,100880.64
2018-07-08T02:54:59.144Z,100882.44
2018-07-08T02:57:27.633Z,100883.63
2018-07-08T02:59:56.067Z,100878.11
2018-07-08T03:02:24.530Z,100873.45
2018-07-08T03:04:52.973Z,100875.67
2018-07-08T03:07:21.439Z,100880.00
2018-07-08T03:09:49.949Z,100874.81
2018-07-08T03:12:18.493Z,100886.28
2018-07-08T03:14:46.949Z,100884.39
2018-07-08T03:17:15.378Z,100886.09
2018-07-08T03:19:43.792Z,100880.41
2018-07-08T03:22:12.213Z,100886.17
2018-07-08T03:24:40.682Z,100887.03
2018-07-08T03:27:09.125Z,100882.77
2018-07-08T03:29:37.582Z,100890.70
2018-07-08T03:32:06.017Z,100892.52
2018-07-08T03:34:34.532Z,100897.71
2018-07-08T03:37:02.938Z,100897.05
2018-07-08T03:39:31.466Z,100895.16
2018-07-08T03:41:59.911Z,100895.56
2018-07-08T03:44:28.379Z,100897.13
2018-07-08T03:46:56.853Z,100900.27
2018-07-08T03:49:25.324Z,100895.70
2018-07-08T03:51:53.779Z,100896.19
2018-07-08T03:54:32.115Z,100892.29
2018-07-08T03:57:00.504Z,100900.01
2018-07-08T03:59:28.914Z,100897.95
2018-07-08T04:01:57.347Z,100888.80
2018-07-08T04:04:25.768Z,100890.48
2018-07-08T04:06:54.162Z,100886.50
2018-07-08T04:09:22.589Z,100896.03
2018-07-08T04:11:51.020Z,100899.50
2018-07-08T04:14:19.482Z,100900.53
2018-07-08T04:16:48.002Z,100896.19
2018-07-08T04:19:16.649Z,100902.77
2018-07-08T04:21:45.030Z,100903.03
2018-07-08T04:24:13.419Z,100909.27
2018-07-08T04:26:41.874Z,100915.94
2018-07-08T04:29:10.316Z,100914.66
2018-07-08T04:31:38.820Z,100917.57
2018-07-08T04:34:07.264Z,100920.19
2018-07-08T04:36:35.661Z,100925.61
2018-07-08T04:39:05.057Z,100934.82
2018-07-08T04:41:33.515Z,100941.97
2018-07-08T04:44:01.944Z,100943.58
2018-07-08T04:46:30.583Z,100946.25
2018-07-08T04:48:58.972Z,100951.55
2018-07-08T04:51:27.386Z,100948.66
2018-07-08T04:53:55.797Z,100952.06
2018-07-08T04:56:24.212Z,100960.70
2018-07-08T04:58:52.896Z,100949.75
2018-07-08T05:01:21.337Z,100955.87
2018-07-08T05:03:49.751Z,100963.06
2018-07-08T05:06:18.154Z,100962.16
2018-07-08T05:08:46.657Z,100961.80
2018-07-08T05:11:15.063Z,100979.33
2018-07-08T05:13:43.500Z,100975.78
2018-07-08T05:16:11.873Z,100971.66
2018-07-08T05:18:40.250Z,100972.52
2018-07-08T05:21:08.854Z,100973.19
2018-07-08T05:23:37.237Z,100971.72
2018-07-08T05:26:05.756Z,100968.74
2018-07-08T05:28:34.133Z,100970.56
2018-07-08T05:31:02.534Z,100969.71
2018-07-08T05:33:30.967Z,100971.18
2018-07-08T05:35:59.482Z,100967.72
2018-07-08T05:38:28.393Z,100961.33
2018-07-08T05:40:56.787Z,100957.00
2018-07-08T05:43:25.352Z,100960.34
2018-07-08T05:45:53.737Z,100960.23
2018-07-08T05:48:22.163Z,100962.45
2018-07-08T05:50:50.596Z,100966.46
2018-07-08T05:53:18.985Z,100960.05
2018-07-08T05:55:47.613Z,100956.48
2018-07-08T05:58:16.005Z,100961.92
2018-07-08T06:00:44.437Z,100966.91
2018-07-08T06:03:13.174Z,100969.64
2018-07-08T06:05:41.601Z,100963.30
2018-07-08T06:08:10.078Z,100961.42
2018-07-08T06:10:38.469Z,100965.50
2018-07-08T06:13:06.986Z,100963.08
2018-07-08T06:15:35.421Z,100962.46
2018-07-08T06:18:03.886Z,100969.32
2018-07-08T06:20:32.357Z,100968.29
2018-07-08T06:23:00.797Z,100970.19
2018-07-08T06:25:29.291Z,100977.31
2018-07-08T06:27:57.697Z,100970.17
2018-07-08T06:30:26.894Z,100976.44
2018-07-08T06:32:55.277Z,100974.78
2018-07-08T06:35:23.731Z,100971.81
2018-07-08T06:37:52.209Z,100973.98
2018-07-08T06:40:20.670Z,100971.27
2018-07-08T06:42:49.070Z,100973.19
2018-07-08T06:45:17.493Z,100974.61
2018-07-08T06:47:45.937Z,100975.72
2018-07-08T06:50:14.422Z,100974.78
2018-07-08T06:52:42.831Z,100973.10
2018-07-08T06:55:11.277Z,100980.03
2018-07-08T06:57:39.686Z,100985.98
2018-07-08T07:00:08.157Z,100986.25
2018-07-08T07:02:36.590Z,100980.51
2018-07-08T07:05:05.041Z,100983.83
2018-07-08T07:07:33.442Z,100987.58
2018-07-08T07:10:01.858Z,100983.31
2018-07-08T07:12:30.316Z,100978.11
2018-07-08T07:14:58.703Z,100987.06
2018-07-08T07:17:27.220Z,100983.27
2018-07-08T07:19:55.722Z,100979.36
2018-07-08T07:22:24.101Z,100989.92
2018-07-08T07:24:52.519Z,100981.48
2018-07-08T07:27:21.122Z,100980.89
2018-07-08T07:29:49.779Z,100993.02
2018-07-08T07:32:18.183Z,100981.94
2018-07-08T07:34:46.560Z,100970.53
2018-07-08T07:37:14.980Z,100976.82
2018-07-08T07:39:43.498Z,100974.42
2018-07-08T07:42:11.932Z,100977.89
2018-07-08T07:44:40.352Z,100979.87
2018-07-08T07:47:08.826Z,100984.47
2018-07-08T07:49:37.209Z,100981.69
2018-07-08T07:52:05.764Z,100981.04
2018-07-08T07:54:34.190Z,100987.15
2018-07-08T07:57:02.690Z,100987.66
2018-07-08T07:59:31.132Z,100985.16
2018-07-08T08:01:59.584Z,100990.25
2018-07-08T08:04:28.137Z,100992.47
2018-07-08T08:06:58.194Z,101003.53
2018-07-08T08:09:28.310Z,100999.81
2018-07-08T08:11:56.913Z,100993.88
2018-07-08T08:14:25.370Z,100998.92
2018-07-08T08:16:53.790Z,100998.88
2018-07-08T08:19:22.217Z,100995.59
2018-07-08T08:21:50.730Z,101001.73
2018-07-08T08:24:19.169Z,100993.60
2018-07-08T08:26:47.639Z,101003.33
2018-07-08T08:29:16.053Z,101005.73
2018-07-08T08:31:44.533Z,101009.50
2018-07-08T08:35:17.989Z,101010.86
2018-07-08T08:37:47.746Z,101003.36
2018-07-08T08:40:17.129Z,100997.33
2018-07-08T08:42:45.689Z,101004.14
2018-07-08T08:45:15.348Z,101004.39
2018-07-08T08:47:43.808Z,101007.72
2018-07-08T08:50:12.954Z,101007.59
2018-07-08T08:52:41.370Z,100999.23
2018-07-08T08:55:10.698Z,101006.25
2018-07-08T08:57:39.150Z,101004.34
2018-07-08T09:00:09.246Z,100988.62
2018-07-08T09:02:37.749Z,100997.71
2018-07-08T09:05:06.974Z,100992.38
2018-07-08T09:07:35.461Z,100991.95
2018-07-08T09:10:03.939Z,100996.55
2018-07-08T09:12:32.478Z,100993.44
2018-07-08T09:15:01.017Z,100997.25
2018-07-08T09:17:29.452Z,100986.80
2018-07-08T09:19:57.890Z,101002.39
2018-07-08T09:22:26.336Z,100992.39
2018-07-08T09:24:54.744Z,100992.02
2018-07-08T09:27:23.178Z,100991.08
2018-07-08T09:29:51.578Z,100991.72
2018-07-08T09:32:20.003Z,100996.98
2018-07-08T09:34:48.440Z,101000.02
2018-07-08T09:37:16.878Z,100993.56
2018-07-08T09:39:45.281Z,100990.53
2018-07-08T09:42:13.701Z,100986.48
2018-07-08T09:44:42.128Z,100983.91
2018-07-08T09:47:10.529Z,100995.98
2018-07-08T09:49:38.910Z,100991.11
2018-07-08T09:52:07.512Z,100999.48
2018-07-08T09:54:35.994Z,100992.38
2018-07-08T09:57:04.686Z,100986.27
2018-07-08T09:59:33.129Z,100978.85
2018-07-08T10:02:01.582Z,100987.17
2018-07-08T10:04:30.082Z,100991.44
2018-07-08T10:06:58.485Z,100975.91
2018-07-08T10:09:26.902Z,100988.28
2018-07-08T10:11:55.334Z,100981.47
2018-07-08T10:14:24.548Z,100978.95
2018-07-08T10:16:53.010Z,100978.80
2018-07-08T10:19:21.941Z,100979.82
2018-07-08T10:21:50.398Z,100978.48
2018-07-08T10:24:18.836Z,100982.66
2018-07-08T10:26:58.203Z,100983.59
2018-07-08T10:29:26.632Z,100969.55
2018-07-08T10:31:55.208Z,100976.75
2018-07-08T10:34:23.774Z,100982.34
2018-07-08T10:36:52.284Z,100979.36
2018-07-08T10:39:20.793Z,100978.66
2018-07-08T10:41:49.261Z,100974.36
2018-07-08T10:44:17.662Z,100973.28
2018-07-08T10:46:46.192Z,100970.72
2018-07-08T10:49:14.655Z,100968.21
2018-07-08T10:51:43.136Z,100967.02
2018-07-08T10:54:11.630Z,100967.19
2018-07-08T10:56:40.326Z,100969.73
2018-07-08T10:59:08.973Z,100961.73
2018-07-08T11:01:37.448Z,100956.52
2018-07-08T11:04:05.943Z,100956.08
2018-07-08T11:06:34.406Z,100955.43
2018-07-08T11:09:02.944Z,100953.13
2018-07-08T11:11:31.529Z,100954.50
2018-07-08T11:13:59.958Z,100953.94
2018-07-08T11:16:28.398Z,100950.48
2018-07-08T11:18:56.911Z,100952.50
2018-07-08T11:21:25.329Z,100955.34
2018-07-08T11:23:53.872Z,100953.92
2018-07-08T11:26:22.317Z,100942.16
2018-07-08T11:28:50.754Z,100945.47
2018-07-08T11:31:19.193Z,100936.94
2018-07-08T11:33:47.996Z,100928.28
2018-07-08T11:36:16.418Z,100928.20
2018-07-08T11:38:44.903Z,100931.38
2018-07-08T11:41:13.341Z,100931.59
2018-07-08T11:43:41.877Z,100931.19
2018-07-08T11:46:10.527Z,100925.45
2018-07-08T11:48:38.985Z,100932.31
2018-07-08T11:51:07.580Z,100919.70
2018-07-08T11:53:36.521Z,100935.09
2018-07-08T11:56:05.042Z,100930.39
2018-07-08T11:58:33.458Z,100919.04
2018-07-08T12:01:01.966Z,100925.00
2018-07-08T12:03:30.561Z,100916.25
2018-07-08T12:05:59.049Z,100921.95
2018-07-08T12:08:27.864Z,100914.69
2018-07-08T12:10:56.673Z,100918.26
2018-07-08T12:13:25.717Z,100914.84
2018-07-08T12:15:54.859Z,100916.03
2018-07-08T12:18:23.589Z,100917.79
2018-07-08T12:20:52.098Z,100917.41
2018-07-08T12:23:20.613Z,100912.14
2018-07-08T12:25:49.657Z,100899.76
2018-07-08T12:28:18.294Z,100908.09
2018-07-08T12:30:46.761Z,100905.62
2018-07-08T12:33:15.254Z,100908.41
2018-07-08T12:35:43.696Z,100905.78
2018-07-08T12:38:12.199Z,100893.69
2018-07-08T12:40:40.652Z,100897.76
2018-07-08T12:43:09.106Z,100900.91
2018-07-08T12:45:37.574Z,100897.15
2018-07-08T12:48:06.132Z,100900.33
2018-07-08T12:50:34.789Z,100895.48
2018-07-08T12:53:03.281Z,100894.12
2018-07-08T12:55:31.769Z,100893.14
2018-07-08T12:58:00.275Z,100888.77
2018-07-08T13:00:28.800Z,100893.99
2018-07-08T13:02:57.245Z,100894.67
2018-07-08T13:05:25.692Z,100883.31
2018-07-08T13:07:54.532Z,100874.52
2018-07-08T13:10:23.021Z,100879.01
2018-07-08T13:12:51.509Z,100879.60
2018-07-08T13:15:19.958Z,100882.82
2018-07-08T13:17:48.423Z,100891.02
2018-07-08T13:20:17.217Z,100889.73
2018-07-08T13:22:45.654Z,100879.26
2018-07-08T13:25:14.140Z,100883.80
2018-07-08T13:27:42.569Z,100891.92
2018-07-08T13:30:11.030Z,100886.70
2018-07-08T13:32:39.601Z,100885.51
2018-07-08T13:35:08.087Z,100889.13
2018-07-08T13:37:36.514Z,100884.61
2018-07-08T13:40:05.189Z,100880.70
2018-07-08T13:42:33.649Z,100883.12
2018-07-08T13:45:03.061Z,100880.00
2018-07-08T13:47:31.703Z,100872.22
2018-07-08T13:50:00.161Z,100880.25
2018-07-08T13:52:28.564Z,100873.28
2018-07-08T13:54:56.977Z,100872.19
2018-07-08T13:57:25.583Z,100872.70
2018-07-08T13:59:53.981Z,100865.16
2018-07-08T14:02:22.402Z,100869.64
2018-07-08T14:04:50.882Z,100870.45
2018-07-08T14:07:19.332Z,100875.17
2018-07-08T14:09:47.753Z,100864.88
2018-07-08T14:12:16.153Z,100869.43
2018-07-08T14:14:44.615Z,100866.86
2018-07-08T14:17:13.022Z,100873.93
2018-07-08T14:19:41.433Z,100869.86
2018-07-08T14:22:09.815Z,100861.47
2018-07-08T14:24:38.293Z,100861.19
2018-07-08T14:27:06.752Z,100868.05
2018-07-08T14:29:35.714Z,100848.27
2018-07-08T14:32:04.257Z,100852.70
2018-07-08T14:34:32.749Z,100855.62
2018-07-08T14:37:01.145Z,100859.98
2018-07-08T14:39:29.623Z,100847.61
2018-07-08T14:41:58.039Z,100842.33
2018-07-08T14:44:26.478Z,100847.83
2018-07-08T14:46:54.878Z,100842.58
2018-07-08T14:49:23.332Z,100846.80
2018-07-08T14:51:51.883Z,100855.30
2018-07-08T14:54:20.379Z,100846.48
2018-07-08T14:56:48.892Z,100842.70
2018-07-08T14:59:17.402Z,100846.63
2018-07-08T15:01:45.854Z,100845.70
2018-07-08T15:04:14.304Z,100853.24
2018-07-08T15:06:42.785Z,100844.88
2018-07-08T15:09:12.254Z,100839.71
2018-07-08T15:11:40.846Z,100829.97
2018-07-08T15:14:09.632Z,100832.31
2018-07-08T15:16:38.148Z,100826.13
2018-07-08T15:19:07.018Z,100837.42
2018-07-08T15:21:35.518Z,100834.84
2018-07-08T15:24:04.019Z,100831.07
2018-07-08T15:26:32.535Z,100828.94
2018-07-08T15:29:00.958Z,100837.91
2018-07-08T15:31:29.523Z,100827.02
2018-07-08T15:33:57.985Z,100824.45
2018-07-08T15:36:26.648Z,100827.27
2018-07-08T15:38:55.076Z,100823.37
2018-07-08T15:41:23.620Z,100819.55
2018-07-08T15:43:52.129Z,100815.23
2018-07-08T15:46:20.625Z,100828.39
2018-07-08T15:48:49.097Z,100819.95
2018-07-08T15:51:17.578Z,100827.25
2018-07-08T15:53:45.997Z,100820.69
2018-07-08T15:56:14.473Z,100815.64
2018-07-08T15:58:42.929Z,100817.38
2018-07-08T16:01:11.402Z,100815.78
2018-07-08T16:03:39.986Z,100813.67
2018-07-08T16:06:08.624Z,100811.33
2018-07-08T16:08:36.984Z,100812.08
2018-07-08T16:11:05.434Z,100810.63
2018-07-08T16:13:34.067Z,100811.33
2018-07-08T16:16:02.535Z,100803.48
2018-07-08T16:18:31.147Z,100805.40
2018-07-08T16:20:59.529Z,100798.38
2018-07-08T16:23:27.963Z,100813.67
2018-07-08T16:25:56.559Z,100805.36
2018-07-08T16:28:24.989Z,100804.84
2018-07-08T16:30:54.234Z,100796.59
2018-07-08T16:33:22.678Z,100791.36
2018-07-08T16:35:53.690Z,100805.80
2018-07-08T16:38:22.173Z,100796.13
2018-07-08T16:40:51.296Z,100799.54
2018-07-08T16:43:19.746Z,100795.82
2018-07-08T16:45:48.445Z,100802.43
2018-07-08T16:48:16.874Z,100798.67
2018-07-08T16:50:45.484Z,100794.07
2018-07-08T16:53:13.885Z,100797.85
2018-07-08T16:55:42.367Z,100800.48
2018-07-08T16:58:10.830Z,100799.22
2018-07-08T17:00:39.310Z,100797.38
2018-07-08T17:03:07.726Z,100791.73
2018-07-08T17:05:36.254Z,100789.84
2018-07-08T17:08:04.709Z,100789.45
2018-07-08T17:10:33.791Z,100788.66
2018-07-08T17:13:02.353Z,100784.11
2018-07-08T17:15:30.762Z,100774.28
2018-07-08T17:17:59.179Z,100779.50
2018-07-08T17:20:27.543Z,100784.14
2018-07-08T17:22:56.418Z,100780.97
2018-07-08T17:25:24.820Z,100783.27
2018-07-08T17:27:53.633Z,100779.31
2018-07-08T17:30:22.031Z,100785.34
2018-07-08T17:32:50.969Z,100781.38
2018-07-08T17:35:19.371Z,100776.89
2018-07-08T17:37:47.804Z,100779.07
2018-07-08T17:40:16.258Z,100776.72
2018-07-08T17:42:44.765Z,100778.66
2018-07-08T17:45:13.164Z,100780.92
2018-07-08T17:47:41.646Z,100781.39
2018-07-08T17:50:10.102Z,100779.44
2018-07-08T17:52:38.752Z,100776.39
2018-07-08T17:55:07.261Z,100781.64
2018-07-08T17:57:35.733Z,100774.12
2018-07-08T18:00:04.291Z,100772.23
2018-07-08T18:02:32.814Z,100772.63
2018-07-08T18:05:01.294Z,100775.86
2018-07-08T18:07:29.789Z,100774.31
2018-07-08T18:09:58.221Z,100771.88
2018-07-08T18:12:26.730Z,100778.09
2018-07-08T18:14:55.189Z,100771.78
2018-07-08T18:17:23.667Z,100776.04
2018-07-08T18:19:52.085Z,100771.66
2018-07-08T18:22:20.633Z,100772.23
2018-07-08T18:24:49.109Z,100774.82
2018-07-08T18:27:18.214Z,100775.28
2018-07-08T18:29:46.605Z,100774.19
2018-07-08T18:32:15.106Z,100768.86
2018-07-08T18:34:43.539Z,100777.81
2018-07-08T18:37:12.063Z,100777.86
2018-07-08T18:39:40.580Z,100773.27
2018-07-08T18:42:09.029Z,100776.70
2018-07-08T18:44:37.473Z,100778.15
2018-07-08T18:47:05.949Z,100775.22
2018-07-08T18:49:34.386Z,100778.03
2018-07-08T18:52:02.968Z,100775.00
2018-07-08T18:54:31.405Z,100771.08
2018-07-08T18:56:59.958Z,100774.95
2018-07-08T18:59:28.565Z,100773.62
2018-07-08T19:01:57.322Z,100778.95
2018-07-08T19:04:25.905Z,100772.50
2018-07-08T19:06:54.374Z,100766.81
2018-07-08T19:09:22.882Z,100768.78
2018-07-08T19:11:51.377Z,100773.32
2018-07-08T19:14:19.917Z,100775.53
2018-07-08T19:16:48.397Z,100778.44
2018-07-08T19:19:16.853Z,100776.63
2018-07-08T19:21:45.385Z,100779.02
2018-07-08T19:24:13.872Z,100777.98
2018-07-08T19:26:42.364Z,100773.97
2018-07-08T19:29:10.905Z,100775.69
2018-07-08T19:31:39.905Z,100777.30
2018-07-08T19:34:08.415Z,100770.20
2018-07-08T19:36:36.953Z,100769.30
2018-07-08T19:39:07.498Z,100778.23
2018-07-08T19:41:37.102Z,100777.48
2018-07-08T19:44:05.626Z,100781.52
2018-07-08T19:46:34.114Z,100783.52
2018-07-08T19:49:02.590Z,100784.18
2018-07-08T19:51:31.097Z,100791.30
2018-07-08T19:54:00.530Z,100788.05
2018-07-08T19:56:29.218Z,100790.63
2018-07-08T19:58:57.838Z,100795.44
2018-07-08T20:01:26.567Z,100790.27
2018-07-08T20:03:55.545Z,100797.02
2018-07-08T20:06:23.942Z,100801.97
2018-07-08T20:08:52.376Z,100802.23
2018-07-08T20:11:20.848Z,100798.08
2018-07-08T20:13:49.324Z,100803.50
2018-07-08T20:16:21.059Z,100808.22
2018-07-08T20:18:49.561Z,100806.66
2018-07-08T20:21:18.290Z,100803.08
2018-07-08T20:23:46.505Z,100804.63
2018-07-08T20:26:14.902Z,100805.89
2018-07-08T20:28:43.350Z,100806.89
2018-07-08T20:31:11.777Z,100815.23
2018-07-08T20:33:40.230Z,100811.84
2018-07-08T20:36:08.671Z,100809.63
2018-07-08T20:38:37.354Z,100821.80
2018-07-08T20:41:05.771Z,100823.45
2018-07-08T20:43:34.297Z,100821.16
2018-07-08T20:46:02.722Z,100815.14
2018-07-08T20:48:31.595Z,100815.78
2018-07-08T20:51:00.079Z,100820.66
2018-07-08T20:53:28.556Z,100824.38
2018-07-08T20:55:57.318Z,100825.18
2018-07-08T20:58:25.769Z,100823.81
2018-07-08T21:00:54.307Z,100827.51
2018-07-08T21:03:22.742Z,100817.36
2018-07-08T21:05:51.198Z,100818.22
2018-07-08T21:08:21.086Z,100818.66
2018-07-08T21:10:49.635Z,100822.97
2018-07-08T21:13:18.062Z,100826.12
2018-07-08T21:15:46.527Z,100832.36
2018-07-08T21:18:15.085Z,100829.30
2018-07-08T21:20:43.577Z,100825.75
2018-07-08T21:23:12.029Z,100824.95
2018-07-08T21:25:40.483Z,100828.30
2018-07-08T21:28:08.942Z,100828.60
2018-07-08T21:30:37.461Z,100824.05
2018-07-08T21:33:06.497Z,100828.66
2018-07-08T21:35:34.996Z,100826.77
2018-07-08T21:38:03.521Z,100828.09
2018-07-08T21:40:32.049Z,100835.09
2018-07-08T21:43:00.589Z,100838.52
2018-07-08T21:45:29.068Z,100834.17
2018-07-08T21:47:57.570Z,100838.84
2018-07-08T21:50:26.921Z,100840.55
2018-07-08T21:52:55.525Z,100837.98
2018-07-08T21:55:23.968Z,100840.69
2018-07-08T21:57:52.461Z,100839.03
2018-07-08T22:00:28.743Z,100843.56
2018-07-08T22:02:57.235Z,100845.81
2018-07-08T22:05:26.127Z,100842.23
2018-07-08T22:07:59.782Z,100846.14
2018-07-08T22:10:30.727Z,100840.16
2018-07-08T22:13:00.169Z,100848.77
2018-07-08T22:15:28.657Z,100845.34
2018-07-08T22:17:58.008Z,100845.17
2018-07-08T22:20:26.874Z,100839.67
2018-07-08T22:22:55.366Z,100846.04
2018-07-08T22:25:23.800Z,100843.34
2018-07-08T22:27:52.296Z,100838.66
2018-07-08T22:30:20.758Z,100833.77
2018-07-08T22:32:49.193Z,100833.54
2018-07-08T22:35:17.617Z,100837.50
2018-07-08T22:37:47.069Z,100832.34
2018-07-08T22:40:15.534Z,100828.02
2018-07-08T22:42:44.037Z,100830.31
2018-07-08T22:45:12.445Z,100831.28
2018-07-08T22:47:40.964Z,100831.97
2018-07-08T22:50:09.397Z,100829.73
2018-07-08T22:52:37.925Z,100835.59
2018-07-08T22:55:07.162Z,100833.44
2018-07-08T22:57:35.582Z,100833.20
2018-07-08T23:00:15.257Z,100823.81
2018-07-08T23:02:45.706Z,100824.98
2018-07-08T23:05:14.584Z,100825.59
2018-07-08T23:07:43.242Z,100828.60
2018-07-08T23:10:12.341Z,100831.07
2018-07-08T23:12:40.765Z,100828.89
2018-07-08T23:15:09.273Z,100827.00
2018-07-08T23:17:37.748Z,100829.49
2018-07-08T23:20:06.225Z,100825.92
2018-07-08T23:22:45.845Z,100828.67
2018-07-08T23:25:14.689Z,100829.51
2018-07-08T23:27:43.175Z,100830.88
2018-07-08T23:30:11.617Z,100830.09
2018-07-08T23:32:40.109Z,100833.36
2018-07-08T23:35:08.549Z,100831.47
2018-07-08T23:37:36.993Z,100835.82
2018-07-08T23:40:05.512Z,100830.71
2018-07-08T23:42:33.973Z,100826.61
2018-07-08T23:45:02.482Z,100837.57
2018-07-08T23:47:30.945Z,100836.23
2018-07-08T23:49:59.425Z,100839.52
2018-07-08T23:52:28.035Z,100841.97
2018-07-08T23:54:56.472Z,100834.83
2018-07-08T23:57:24.920Z,100845.24
2018-07-08T23:59:53.890Z,100845.83
